Meteo Giornale » Osservazioni meteo Italia » Lecce

ore: 08:55 - Osservazioni Meteo Lecce
Lat. 40° 14' N Lon. 18° 9' E Alt. 48 metri s.l.m.

nuvoloso Europe/Rome

15 °C

Nuvoloso

Temp. 24 Ore

10 °C

17 °C

Sud/Sud-Est

13 Km/h

Dew point 12 °C

Umidità 82 %

Visibilità  8 Km

Il sole sorge alle ore 05:50

Il sole tramonta alle ore 17:59

Data e Ora Cielo e Fenomeni T °C DP °C Um. % Pres. hPa Vis. km Vento km/h
Oggi h: 08:55 nuvoloso Nuvoloso 15 12 82 1016 8 S/SE 13
Oggi h: 07:55 nuvoloso Nuvoloso 13 12 93 1016 8 E/SE 9.3
Oggi h: 06:55 nuvoloso Nuvoloso 11 10 93 1016 8 N 5.5
Oggi h: 05:55 poco_nuvoloso Poco Nuvoloso 10 9 93 1016 7 N 5.5
Oggi h: 04:55 poco_nuvoloso Poco Nuvoloso 10 9 93 1016 10 N 5.5
Oggi h: 03:55 poco_nuvoloso Poco Nuvoloso 11 10 93 1016 10 N 1.8
Oggi h: 02:55 poco_nuvoloso Poco Nuvoloso 12 11 93 1016 10 S/SE 9.3
Oggi h: 01:55 poco_nuvoloso Poco Nuvoloso 12 11 93 1016 10 SE 7.4
Oggi h: 00:55 poco_nuvoloso Poco Nuvoloso 11 10 93 1016 10 SE 9.3
Ieri h: 23:55 poco_nuvoloso Poco Nuvoloso 11 10 93 1016 10 S/SE 11.1
Ieri h: 22:55 poco_nuvoloso Poco Nuvoloso 12 11 93 1016 10 SE 7.4
Ieri h: 21:55 nuvoloso Nuvoloso 12 11 93 1016 10 SE 11.1
Ieri h: 20:55 nuvoloso Nuvoloso 12 11 93 1015 10 S/SE 9.3
Ieri h: 19:55 nuvoloso Nuvoloso 13 12 93 1015 10 S/SE 16.7
Ieri h: 18:55 nuvoloso Nuvoloso 13 12 93 1015 10 S/SE 14.8
Ieri h: 16:55 nuvoloso Nuvoloso 14 13 93 1014 10 S 24
Ieri h: 15:55 nuvoloso Nuvoloso 16 15 93 1014 10 S/SE 27.8
Ieri h: 14:55 nuvoloso Nuvoloso 16 15 93 1014 10 S 29.6
Ieri h: 13:55 nuvoloso Nuvoloso 16 14 87 1015 10 S 29.6
Ieri h: 12:55 molto_nuvoloso Molto Nuvoloso 17 14 82 1015 10 S 25.9
Ieri h: 11:55 molto_nuvoloso Molto Nuvoloso 16 14 87 1015 10 S 25.9
Ieri h: 10:55 molto_nuvoloso Molto Nuvoloso 16 14 87 1015 10 S/SE 31.5
Ieri h: 08:55 molto_nuvoloso Molto Nuvoloso 13 11 87 1015 8 S 24